Albright, West Virginia
Current Conditions -  °F | °C
As of 10:45 PM on Monday 20 Oct 2014 (Local Time) from K2G4 Reporting Station
Overcast Overcast  
Wind Chill:   Ceiling: 4200
Heat Index:   Visibility: 10mi
Dew Point:   Wind: 8mph
Humidity: 93%   Direction: 220°SW
Pressure: 29.92"   Gusts: NA
Location:  39.49°N, 79.64°W
Report Text: K2G4 210245Z AUTO 22007KT 10SM BKN042 OVC055 08/07 A2992 RMK AO1
Loading
Personal Weather Stations






























Interactive Weather Map
Tropical Storm Tracking
New forecast layout! Learn more

10-Day Weather Forecast

Advertisements
Track Severe Weather on mobile